Terminal Aerodrome Forecast
Issued by NWS

Home | Current Version | Previous Version | Text Only | Print | Product List | Glossary Off
Versions: 1 2 3 4 5 6 7 8 9 10 11 12 13 14 15

000
FTUS43 KGRB 091130
TAFCWA
TAF
KCWA 091130Z 0912/1012 30007KT P6SM SCT035
      TEMPO 0912/0916 SCT030 BKN040
     FM091600 29008G14KT P6SM SCT040
     FM092200 28007KT P6SM SCT035
     FM100000 28006KT P6SM SCT025 BKN035
     FM100600 28005KT P6SM SCT028=

USA.gov is the U.S. government's official web portal to all federal, state and local government web resources and services.